Time;durP1;ratioP1;P1;durP2;ratioP2;P2;SDS_P1;SDS_P2;PMS_P1;PMS_P2;Temp;Humidity;BMP_temperature;BMP_pressure;BME280_temperature;BME280_humidity;BME280_pressure;Samples;Min_cycle;Max_cycle;Signal;HPM_P1;HPM_P2
2023/03/14 00:00:26;;;;;;;4.38;1.30;;;;;;;;;;5118017;28;20202;-79
2023/03/14 00:02:53;;;;;;;5.40;1.67;;;;;;;;;;5118119;28;20171;-79
2023/03/14 00:05:19;;;;;;;6.43;1.85;;;;;;;;;;5116752;28;20313;-80
2023/03/14 00:07:45;;;;;;;10.57;1.77;;;;;;;;;;5099711;28;20555;-80
2023/03/14 00:10:13;;;;;;;11.85;1.88;;;;;;;;;;5082729;28;20191;-80
2023/03/14 00:12:39;;;;;;;7.72;1.98;;;;;;;;;;5099833;28;20175;-79
2023/03/14 00:15:06;;;;;;;9.60;2.17;;;;;;;;;;5082807;28;20228;-80
2023/03/14 00:17:33;;;;;;;5.15;1.85;;;;;;;;;;5100060;28;20183;-79
2023/03/14 00:20:07;;;;;;;3.85;1.67;;;;;;;;;;5118420;28;20172;-79
2023/03/14 00:22:34;;;;;;;9.50;2.20;;;;;;;;;;5118408;28;20151;-79
2023/03/14 00:25:00;;;;;;;3.80;1.70;;;;;;;;;;5117755;28;20172;-80
2023/03/14 00:27:26;;;;;;;6.18;1.85;;;;;;;;;;5099435;28;20294;-79
2023/03/14 00:29:52;;;;;;;8.88;1.80;;;;;;;;;;5099574;28;20172;-80
2023/03/14 00:32:18;;;;;;;6.90;1.73;;;;;;;;;;5117850;28;20224;-80
2023/03/14 00:34:44;;;;;;;8.50;3.95;;;;;;;;;;5117989;28;20179;-80
2023/03/14 00:37:10;;;;;;;13.13;3.40;;;;;;;;;;5099604;28;20514;-80
2023/03/14 00:39:36;;;;;;;3.92;1.58;;;;;;;;;;5117257;28;20172;-79
2023/03/14 00:42:02;;;;;;;6.80;1.30;;;;;;;;;;5117598;28;20175;-79
2023/03/14 00:44:28;;;;;;;6.75;1.92;;;;;;;;;;5099232;28;20170;-80
2023/03/14 00:46:55;;;;;;;5.68;1.88;;;;;;;;;;5117848;28;20524;-80
2023/03/14 00:49:20;;;;;;;5.75;2.05;;;;;;;;;;5117187;28;20519;-78
2023/03/14 00:51:46;;;;;;;4.50;2.20;;;;;;;;;;5099429;28;20228;-79
2023/03/14 00:54:13;;;;;;;7.03;2.08;;;;;;;;;;5117560;28;20390;-77
2023/03/14 00:56:39;;;;;;;4.32;1.45;;;;;;;;;;5117976;28;20186;-77
2023/03/14 00:59:05;;;;;;;3.00;1.08;;;;;;;;;;5118242;28;20179;-79
2023/03/14 01:01:31;;;;;;;2.97;0.73;;;;;;;;;;5117817;28;20288;-77
2023/03/14 01:03:57;;;;;;;3.85;1.20;;;;;;;;;;5118221;28;20176;-78
2023/03/14 01:06:24;;;;;;;5.30;2.20;;;;;;;;;;5117662;28;20183;-77
2023/03/14 01:08:51;;;;;;;6.07;1.15;;;;;;;;;;5117637;28;20202;-78
2023/03/14 01:11:21;;;;;;;3.75;1.52;;;;;;;;;;5099383;28;20192;-77
2023/03/14 01:13:47;;;;;;;8.68;1.15;;;;;;;;;;5117486;28;20587;-77
2023/03/14 01:16:14;;;;;;;4.28;1.27;;;;;;;;;;5098843;28;20581;-78
2023/03/14 01:18:43;;;;;;;5.30;1.13;;;;;;;;;;5099469;28;20228;-78
2023/03/14 01:21:14;;;;;;;7.43;1.50;;;;;;;;;;5117616;28;20189;-78
2023/03/14 01:23:40;;;;;;;6.53;2.05;;;;;;;;;;5117862;28;20172;-78
2023/03/14 01:26:09;;;;;;;4.55;1.17;;;;;;;;;;5117814;28;20168;-80
2023/03/14 01:28:35;;;;;;;5.28;1.70;;;;;;;;;;5117433;28;20559;-77
2023/03/14 01:31:05;;;;;;;2.92;1.20;;;;;;;;;;5099615;28;20187;-78
2023/03/14 01:33:31;;;;;;;2.72;1.65;;;;;;;;;;5117542;28;20175;-77
2023/03/14 01:35:57;;;;;;;5.30;1.50;;;;;;;;;;5117407;28;20178;-78
2023/03/14 01:38:23;;;;;;;4.68;1.30;;;;;;;;;;5117276;28;20172;-77
2023/03/14 01:40:49;;;;;;;2.28;1.30;;;;;;;;;;5117558;28;20268;-77
2023/03/14 01:43:16;;;;;;;7.30;1.35;;;;;;;;;;5116873;28;20171;-78
2023/03/14 01:46:01;;;;;;;3.95;1.10;;;;;;;;;;5098969;28;20263;-77
2023/03/14 01:48:29;;;;;;;2.88;0.90;;;;;;;;;;5116594;28;21036;-77
2023/03/14 01:50:55;;;;;;;4.97;1.17;;;;;;;;;;5116093;28;20183;-78
2023/03/14 01:53:21;;;;;;;3.55;1.35;;;;;;;;;;5116141;28;20159;-78
2023/03/14 01:55:53;;;;;;;1.77;1.17;;;;;;;;;;5116620;28;20188;-77
2023/03/14 01:58:19;;;;;;;3.63;1.10;;;;;;;;;;5116984;28;20555;-78
2023/03/14 02:00:46;;;;;;;3.58;1.30;;;;;;;;;;5098773;28;20175;-78
2023/03/14 02:03:14;;;;;;;3.45;1.20;;;;;;;;;;5098749;28;20167;-78
2023/03/14 02:05:41;;;;;;;4.45;0.95;;;;;;;;;;5116554;28;20227;-78
2023/03/14 02:08:10;;;;;;;2.47;1.00;;;;;;;;;;5098063;28;20211;-78
2023/03/14 02:10:39;;;;;;;4.22;1.10;;;;;;;;;;5117122;28;20178;-78
2023/03/14 02:13:05;;;;;;;1.83;0.80;;;;;;;;;;5098773;28;20204;-78
2023/03/14 02:15:32;;;;;;;4.05;0.90;;;;;;;;;;5098371;28;20251;-78
2023/03/14 02:17:59;;;;;;;2.78;1.08;;;;;;;;;;5098484;28;20172;-78
2023/03/14 02:20:43;;;;;;;6.72;1.38;;;;;;;;;;5116513;28;20187;-78
2023/03/14 02:23:09;;;;;;;4.30;1.13;;;;;;;;;;5115865;28;20267;-78
2023/03/14 02:25:45;;;;;;;1.98;0.85;;;;;;;;;;5116813;28;20179;-78
2023/03/14 02:28:12;;;;;;;3.00;1.25;;;;;;;;;;5115832;28;20224;-81
2023/03/14 02:30:38;;;;;;;5.85;1.17;;;;;;;;;;5098243;28;20188;-78
2023/03/14 02:33:08;;;;;;;4.25;1.20;;;;;;;;;;5117042;28;20164;-78
2023/03/14 02:35:37;;;;;;;3.33;0.90;;;;;;;;;;5116586;28;20183;-79
2023/03/14 02:38:25;;;;;;;7.68;1.27;;;;;;;;;;5116970;28;20269;-78
2023/03/14 02:40:51;;;;;;;3.63;1.23;;;;;;;;;;5116136;28;20164;-78
2023/03/14 02:43:17;;;;;;;4.13;1.27;;;;;;;;;;5116563;28;20182;-78
2023/03/14 02:45:47;;;;;;;7.47;1.23;;;;;;;;;;5116375;28;20182;-79
2023/03/14 02:48:16;;;;;;;4.47;1.25;;;;;;;;;;5116224;28;20194;-79
2023/03/14 02:50:42;;;;;;;2.90;1.15;;;;;;;;;;5098129;28;20182;-78
2023/03/14 02:53:08;;;;;;;3.55;1.02;;;;;;;;;;5116227;28;20212;-79
2023/03/14 02:55:34;;;;;;;4.93;1.33;;;;;;;;;;5097509;28;20768;-78
2023/03/14 02:58:00;;;;;;;1.83;0.90;;;;;;;;;;5098068;28;20184;-79
2023/03/14 03:00:26;;;;;;;5.32;1.77;;;;;;;;;;5115849;28;20180;-79
2023/03/14 03:02:52;;;;;;;6.18;1.70;;;;;;;;;;5116572;28;20179;-79
2023/03/14 03:05:18;;;;;;;4.47;2.05;;;;;;;;;;5115918;28;20227;-79
2023/03/14 03:07:44;;;;;;;5.13;1.55;;;;;;;;;;5116273;28;20203;-79
2023/03/14 03:10:11;;;;;;;7.20;1.40;;;;;;;;;;5097577;28;20747;-79
2023/03/14 03:12:37;;;;;;;5.05;1.40;;;;;;;;;;5097218;28;20229;-79
2023/03/14 03:15:03;;;;;;;3.28;1.50;;;;;;;;;;5115787;28;20168;-79
2023/03/14 03:17:29;;;;;;;3.78;1.00;;;;;;;;;;5097706;28;20244;-79
2023/03/14 03:19:55;;;;;;;3.85;1.40;;;;;;;;;;5115684;28;20175;-79
2023/03/14 03:22:21;;;;;;;3.53;1.05;;;;;;;;;;5115420;28;20176;-79
2023/03/14 03:24:47;;;;;;;2.90;1.05;;;;;;;;;;5115690;28;20179;-78
2023/03/14 03:27:13;;;;;;;6.43;1.77;;;;;;;;;;5115753;28;20638;-78
2023/03/14 03:29:39;;;;;;;7.93;1.45;;;;;;;;;;5115270;28;20188;-78
2023/03/14 03:32:05;;;;;;;4.15;1.23;;;;;;;;;;5098100;28;20190;-78
2023/03/14 03:34:31;;;;;;;4.03;1.50;;;;;;;;;;5097145;28;20179;-78
2023/03/14 03:36:57;;;;;;;4.40;1.55;;;;;;;;;;5098028;28;20207;-78
2023/03/14 03:39:23;;;;;;;6.43;1.20;;;;;;;;;;5115778;28;20179;-78
2023/03/14 03:41:49;;;;;;;4.25;1.83;;;;;;;;;;5101669;28;20197;-78
2023/03/14 03:44:15;;;;;;;5.75;1.90;;;;;;;;;;5118938;28;20183;-83
2023/03/14 03:46:41;;;;;;;7.03;1.58;;;;;;;;;;5119733;28;20179;-78
2023/03/14 03:49:07;;;;;;;11.48;1.88;;;;;;;;;;5119555;28;20210;-79
2023/03/14 03:51:33;;;;;;;4.97;1.40;;;;;;;;;;5101093;28;20188;-78
2023/03/14 03:53:59;;;;;;;3.38;1.15;;;;;;;;;;5101010;28;20176;-78
2023/03/14 03:56:25;;;;;;;5.20;1.23;;;;;;;;;;5119465;28;20168;-77
2023/03/14 03:58:51;;;;;;;1.65;1.02;;;;;;;;;;5119534;28;20182;-78
2023/03/14 04:01:17;;;;;;;7.63;1.35;;;;;;;;;;5119393;28;20636;-78
2023/03/14 04:03:43;;;;;;;4.85;1.58;;;;;;;;;;5100934;28;20184;-78
2023/03/14 04:06:11;;;;;;;6.90;1.40;;;;;;;;;;5118875;28;20222;-77
2023/03/14 04:08:37;;;;;;;5.95;1.10;;;;;;;;;;5100594;28;20675;-78
2023/03/14 04:11:04;;;;;;;5.60;1.67;;;;;;;;;;5119461;28;20201;-78
2023/03/14 04:13:30;;;;;;;2.78;1.00;;;;;;;;;;5119288;28;20179;-77
2023/03/14 04:15:56;;;;;;;2.72;0.90;;;;;;;;;;5119273;28;20518;-77
2023/03/14 04:18:26;;;;;;;4.82;1.00;;;;;;;;;;5119057;28;20203;-77
2023/03/14 04:20:52;;;;;;;4.03;1.17;;;;;;;;;;5119527;28;20176;-77
2023/03/14 04:23:18;;;;;;;2.00;1.00;;;;;;;;;;5119241;28;20217;-77
2023/03/14 04:25:44;;;;;;;3.42;0.93;;;;;;;;;;5118978;28;20183;-77
2023/03/14 04:28:10;;;;;;;2.78;1.88;;;;;;;;;;5118950;28;20514;-77
2023/03/14 04:30:37;;;;;;;3.30;1.00;;;;;;;;;;5118449;28;20654;-77
2023/03/14 04:33:03;;;;;;;2.20;0.82;;;;;;;;;;5119014;28;20220;-77
2023/03/14 04:35:30;;;;;;;3.08;1.10;;;;;;;;;;5118134;28;20643;-77
2023/03/14 04:37:56;;;;;;;2.05;0.80;;;;;;;;;;5100973;28;20189;-77
2023/03/14 04:40:23;;;;;;;1.80;0.90;;;;;;;;;;5100238;28;20176;-77
2023/03/14 04:42:49;;;;;;;1.85;0.90;;;;;;;;;;5118823;28;20220;-77
2023/03/14 04:45:15;;;;;;;1.13;0.60;;;;;;;;;;5100466;28;20175;-77
2023/03/14 04:47:41;;;;;;;1.33;0.60;;;;;;;;;;5118051;28;20541;-77
2023/03/14 04:50:07;;;;;;;2.38;0.77;;;;;;;;;;5118387;28;20233;-77
2023/03/14 04:52:33;;;;;;;1.75;0.60;;;;;;;;;;5099620;28;20176;-77
2023/03/14 04:54:59;;;;;;;1.50;0.82;;;;;;;;;;5099969;28;20186;-77
2023/03/14 04:57:25;;;;;;;2.08;0.73;;;;;;;;;;5118740;28;20643;-77
2023/03/14 04:59:51;;;;;;;1.40;0.65;;;;;;;;;;5118557;28;20182;-76
2023/03/14 05:02:17;;;;;;;1.67;0.70;;;;;;;;;;5100071;28;20176;-77
2023/03/14 05:04:43;;;;;;;1.13;0.60;;;;;;;;;;5099226;28;20238;-77
2023/03/14 05:07:09;;;;;;;2.25;0.60;;;;;;;;;;5118343;28;20171;-76
2023/03/14 05:09:35;;;;;;;0.70;0.50;;;;;;;;;;5118022;28;20222;-77
2023/03/14 05:12:01;;;;;;;0.70;0.50;;;;;;;;;;5118355;28;20178;-77
2023/03/14 05:14:27;;;;;;;0.60;0.50;;;;;;;;;;5118407;28;20224;-77
2023/03/14 05:16:53;;;;;;;0.60;0.50;;;;;;;;;;5118351;28;20163;-77
2023/03/14 05:19:19;;;;;;;1.73;0.90;;;;;;;;;;5118081;28;20224;-77
2023/03/14 05:21:45;;;;;;;0.60;0.50;;;;;;;;;;5118372;28;20254;-78
2023/03/14 05:24:11;;;;;;;4.70;0.60;;;;;;;;;;5100351;28;20631;-77
2023/03/14 05:26:37;;;;;;;0.80;0.57;;;;;;;;;;5117602;28;20171;-77
2023/03/14 05:29:03;;;;;;;5.30;0.50;;;;;;;;;;5117772;28;20202;-78
2023/03/14 05:31:29;;;;;;;1.02;0.50;;;;;;;;;;5099778;28;20179;-77
2023/03/14 05:33:55;;;;;;;6.07;0.98;;;;;;;;;;5118019;28;20202;-77
2023/03/14 05:36:21;;;;;;;0.97;0.50;;;;;;;;;;5117364;28;20172;-81
2023/03/14 05:38:47;;;;;;;0.60;0.50;;;;;;;;;;5117705;28;20413;-77
2023/03/14 05:41:13;;;;;;;1.00;0.50;;;;;;;;;;5098796;28;20413;-77
2023/03/14 05:43:39;;;;;;;0.80;0.60;;;;;;;;;;5117111;28;20397;-77
2023/03/14 05:46:05;;;;;;;0.70;0.60;;;;;;;;;;5117515;28;20405;-77
2023/03/14 05:48:31;;;;;;;0.90;0.60;;;;;;;;;;5116869;28;20202;-77
2023/03/14 05:50:59;;;;;;;2.30;0.60;;;;;;;;;;5117485;28;20179;-77
2023/03/14 05:53:25;;;;;;;2.47;0.63;;;;;;;;;;5116928;28;20397;-78
2023/03/14 05:55:51;;;;;;;1.33;0.50;;;;;;;;;;5117432;28;20225;-77
2023/03/14 05:58:17;;;;;;;1.25;0.68;;;;;;;;;;5117089;28;20175;-77
2023/03/14 06:00:43;;;;;;;2.47;0.73;;;;;;;;;;5098407;28;20227;-76
2023/03/14 06:03:09;;;;;;;2.25;0.60;;;;;;;;;;5116774;28;20213;-77
2023/03/14 06:05:36;;;;;;;1.00;0.70;;;;;;;;;;5117098;28;20608;-78
2023/03/14 06:08:02;;;;;;;2.15;0.75;;;;;;;;;;5099073;28;20449;-77
2023/03/14 06:10:28;;;;;;;1.63;0.63;;;;;;;;;;5116867;28;20186;-77
2023/03/14 06:12:54;;;;;;;1.10;0.70;;;;;;;;;;5117842;28;20608;-77
2023/03/14 06:15:20;;;;;;;4.80;0.60;;;;;;;;;;5117156;28;20413;-77
2023/03/14 06:17:46;;;;;;;3.72;0.93;;;;;;;;;;5098874;28;20228;-77
2023/03/14 06:20:12;;;;;;;0.93;0.70;;;;;;;;;;5117034;28;20233;-77
2023/03/14 06:22:39;;;;;;;1.65;0.85;;;;;;;;;;5116743;28;20296;-77
2023/03/14 06:25:05;;;;;;;2.70;1.00;;;;;;;;;;5117232;28;20206;-77
2023/03/14 06:27:31;;;;;;;1.05;0.57;;;;;;;;;;5116692;28;20179;-78
2023/03/14 06:29:57;;;;;;;0.80;0.60;;;;;;;;;;5117372;28;20168;-77
2023/03/14 06:32:23;;;;;;;1.92;0.75;;;;;;;;;;5098801;28;20171;-77
2023/03/14 06:34:49;;;;;;;1.50;0.70;;;;;;;;;;5116796;28;20563;-77
2023/03/14 06:37:15;;;;;;;0.80;0.57;;;;;;;;;;5117563;28;20900;-77
2023/03/14 06:39:43;;;;;;;0.60;0.50;;;;;;;;;;5098339;28;20183;-77
2023/03/14 06:42:09;;;;;;;1.33;0.60;;;;;;;;;;5116869;28;20305;-77
2023/03/14 06:44:35;;;;;;;0.70;0.52;;;;;;;;;;5116266;28;20224;-77
2023/03/14 06:47:01;;;;;;;1.90;0.68;;;;;;;;;;5098565;28;20241;-77
2023/03/14 06:49:27;;;;;;;1.27;0.80;;;;;;;;;;5116196;28;20211;-77
2023/03/14 06:51:53;;;;;;;3.80;1.00;;;;;;;;;;5116922;28;20171;-77
2023/03/14 06:54:19;;;;;;;0.80;0.60;;;;;;;;;;5098263;28;20179;-77
2023/03/14 06:56:45;;;;;;;2.28;1.00;;;;;;;;;;5116251;28;20186;-77
2023/03/14 06:59:11;;;;;;;3.17;1.15;;;;;;;;;;5116647;28;20187;-78
2023/03/14 07:01:37;;;;;;;4.50;1.15;;;;;;;;;;5116268;28;20187;-78
2023/03/14 07:04:04;;;;;;;1.13;0.88;;;;;;;;;;5098492;28;20416;-77
2023/03/14 07:06:30;;;;;;;1.98;0.88;;;;;;;;;;5116204;28;20258;-77
2023/03/14 07:08:56;;;;;;;5.63;1.00;;;;;;;;;;5116236;28;20247;-77
2023/03/14 07:11:22;;;;;;;1.77;0.70;;;;;;;;;;5098262;28;20505;-77
2023/03/14 07:13:48;;;;;;;1.85;0.65;;;;;;;;;;5116505;28;20513;-77
2023/03/14 07:16:14;;;;;;;2.35;0.60;;;;;;;;;;5119833;28;20224;-77
2023/03/14 07:18:40;;;;;;;0.80;0.50;;;;;;;;;;5119774;28;20179;-77
2023/03/14 07:21:07;;;;;;;1.00;0.50;;;;;;;;;;5101768;28;20183;-77
2023/03/14 07:23:33;;;;;;;1.33;0.50;;;;;;;;;;5119987;28;20179;-77
2023/03/14 07:25:59;;;;;;;0.65;0.50;;;;;;;;;;5120227;28;20172;-78
2023/03/14 07:28:27;;;;;;;1.80;0.60;;;;;;;;;;5119773;28;20206;-77
2023/03/14 07:30:53;;;;;;;0.70;0.60;;;;;;;;;;5119902;28;20342;-78
2023/03/14 07:33:19;;;;;;;0.60;0.50;;;;;;;;;;5101292;28;20175;-78
2023/03/14 07:35:46;;;;;;;0.75;0.55;;;;;;;;;;5119730;28;20225;-77
2023/03/14 07:38:12;;;;;;;0.70;0.47;;;;;;;;;;5119532;28;20175;-78
2023/03/14 07:40:39;;;;;;;0.57;0.43;;;;;;;;;;5118883;28;20651;-78
2023/03/14 07:43:05;;;;;;;0.50;0.40;;;;;;;;;;5119467;28;20527;-77
2023/03/14 07:45:31;;;;;;;0.70;0.40;;;;;;;;;;5100540;28;20636;-78
2023/03/14 07:47:57;;;;;;;0.90;0.60;;;;;;;;;;5118671;28;20236;-78
2023/03/14 07:50:24;;;;;;;0.60;0.50;;;;;;;;;;5084237;28;20184;-78
2023/03/14 07:52:50;;;;;;;0.52;0.40;;;;;;;;;;5119353;28;20270;-78
2023/03/14 07:55:16;;;;;;;0.70;0.40;;;;;;;;;;5119201;28;20595;-78
2023/03/14 07:57:42;;;;;;;1.17;0.60;;;;;;;;;;5084259;28;20274;-77
2023/03/14 08:00:09;;;;;;;0.60;0.40;;;;;;;;;;5119441;28;20175;-78
2023/03/14 08:02:36;;;;;;;0.70;0.50;;;;;;;;;;5101142;28;20270;-78
2023/03/14 08:05:02;;;;;;;0.63;0.50;;;;;;;;;;5118971;28;20577;-78
2023/03/14 08:07:28;;;;;;;0.60;0.50;;;;;;;;;;5100455;28;20180;-78
2023/03/14 08:09:54;;;;;;;0.70;0.50;;;;;;;;;;5100507;28;20179;-78
2023/03/14 08:12:20;;;;;;;0.60;0.50;;;;;;;;;;5118972;28;20518;-78
2023/03/14 08:14:46;;;;;;;1.48;0.60;;;;;;;;;;5118439;28;20405;-79
2023/03/14 08:17:12;;;;;;;1.80;0.50;;;;;;;;;;5118537;28;20171;-78
2023/03/14 08:19:38;;;;;;;0.97;0.60;;;;;;;;;;5118413;28;20270;-78
2023/03/14 08:22:05;;;;;;;0.65;0.50;;;;;;;;;;5118983;28;20488;-78
2023/03/14 08:24:31;;;;;;;0.90;0.60;;;;;;;;;;5118290;28;20624;-79
2023/03/14 08:26:57;;;;;;;1.75;0.57;;;;;;;;;;5117490;28;20184;-78
2023/03/14 08:29:23;;;;;;;1.50;0.77;;;;;;;;;;5100355;28;20200;-79
2023/03/14 08:31:49;;;;;;;0.90;0.75;;;;;;;;;;5100450;28;20187;-78
2023/03/14 08:34:16;;;;;;;0.80;0.60;;;;;;;;;;5100386;28;20171;-78
2023/03/14 08:36:42;;;;;;;0.70;0.63;;;;;;;;;;5118393;28;20172;-78
2023/03/14 08:39:09;;;;;;;2.60;0.75;;;;;;;;;;5117874;28;20179;-79
2023/03/14 08:41:40;;;;;;;2.22;0.70;;;;;;;;;;5117906;28;20164;-78
2023/03/14 08:44:06;;;;;;;1.40;0.70;;;;;;;;;;5118402;28;20187;-77
2023/03/14 08:46:32;;;;;;;2.35;0.90;;;;;;;;;;5100198;28;20642;-77
2023/03/14 08:48:58;;;;;;;1.13;0.70;;;;;;;;;;5100301;28;20286;-77
2023/03/14 08:51:24;;;;;;;1.00;0.60;;;;;;;;;;5118580;28;20521;-77
2023/03/14 08:53:50;;;;;;;2.35;0.75;;;;;;;;;;5100059;28;20237;-78
2023/03/14 08:56:16;;;;;;;1.65;0.68;;;;;;;;;;5117628;28;20591;-78
2023/03/14 08:58:43;;;;;;;4.53;1.02;;;;;;;;;;5117584;28;20232;-78
2023/03/14 09:01:10;;;;;;;0.90;0.75;;;;;;;;;;5099563;28;20183;-77
2023/03/14 09:03:37;;;;;;;1.00;0.70;;;;;;;;;;5099933;28;20505;-78
2023/03/14 09:06:04;;;;;;;2.00;0.80;;;;;;;;;;5117801;28;20211;-78
2023/03/14 09:08:30;;;;;;;1.17;0.80;;;;;;;;;;5117453;28;20191;-78
2023/03/14 09:10:56;;;;;;;1.40;0.80;;;;;;;;;;5117596;28;20201;-78
2023/03/14 09:13:22;;;;;;;1.00;0.90;;;;;;;;;;5117673;28;20552;-77
2023/03/14 09:15:55;;;;;;;3.90;0.70;;;;;;;;;;5117152;28;20217;-78
2023/03/14 09:18:21;;;;;;;2.25;0.85;;;;;;;;;;5117731;28;20197;-78
2023/03/14 09:20:47;;;;;;;2.30;0.90;;;;;;;;;;5099076;28;20704;-77
2023/03/14 09:23:13;;;;;;;1.00;0.90;;;;;;;;;;5098831;28;20278;-78
2023/03/14 09:25:39;;;;;;;3.45;1.42;;;;;;;;;;5117028;28;20176;-79
2023/03/14 09:28:05;;;;;;;2.95;1.48;;;;;;;;;;5099633;28;20705;-77
2023/03/14 09:30:31;;;;;;;1.50;1.40;;;;;;;;;;5100085;28;20183;-78
2023/03/14 09:32:58;;;;;;;1.20;1.10;;;;;;;;;;5117850;28;20820;-77
2023/03/14 09:35:24;;;;;;;1.00;0.90;;;;;;;;;;5118354;28;20422;-78
2023/03/14 09:37:51;;;;;;;1.08;0.98;;;;;;;;;;5117177;28;20175;-78
2023/03/14 09:40:18;;;;;;;5.13;1.40;;;;;;;;;;5082862;28;20248;-78
2023/03/14 09:42:44;;;;;;;1.30;1.10;;;;;;;;;;5099031;28;20183;-78
2023/03/14 09:45:30;;;;;;;1.02;0.93;;;;;;;;;;5117788;28;20167;-78
2023/03/14 09:47:57;;;;;;;3.95;2.30;;;;;;;;;;5099912;28;20218;-77
2023/03/14 09:50:24;;;;;;;1.30;1.10;;;;;;;;;;5118231;28;20554;-77
2023/03/14 09:52:52;;;;;;;1.70;1.30;;;;;;;;;;5099440;28;20171;-78
2023/03/14 09:55:22;;;;;;;1.33;1.20;;;;;;;;;;5117867;28;20163;-77
2023/03/14 09:57:49;;;;;;;4.78;1.50;;;;;;;;;;5117859;28;20236;-77
2023/03/14 10:00:15;;;;;;;2.70;2.45;;;;;;;;;;5117930;28;20234;-77
2023/03/14 10:02:45;;;;;;;2.20;2.00;;;;;;;;;;5117486;28;20175;-77
2023/03/14 10:05:15;;;;;;;2.55;2.05;;;;;;;;;;5117009;28;20306;-78
2023/03/14 10:07:41;;;;;;;2.42;1.60;;;;;;;;;;5099122;28;20174;-77
2023/03/14 10:10:21;;;;;;;1.80;1.45;;;;;;;;;;5117384;28;20182;-78
2023/03/14 10:12:48;;;;;;;3.15;1.55;;;;;;;;;;5116985;28;20182;-79
2023/03/14 10:15:18;;;;;;;1.52;1.42;;;;;;;;;;5117539;28;20227;-78
2023/03/14 10:17:47;;;;;;;2.25;1.65;;;;;;;;;;5117090;28;20205;-78
2023/03/14 10:20:32;;;;;;;2.33;1.33;;;;;;;;;;5117211;28;20637;-78
2023/03/14 10:22:59;;;;;;;2.20;1.50;;;;;;;;;;5116986;28;20289;-77
2023/03/14 10:25:29;;;;;;;2.22;1.80;;;;;;;;;;5117479;28;20180;-78
2023/03/14 10:27:56;;;;;;;4.80;2.63;;;;;;;;;;5116818;28;20230;-78
2023/03/14 10:30:34;;;;;;;5.70;3.40;;;;;;;;;;5117655;28;20249;-78
2023/03/14 10:33:07;;;;;;;5.05;1.70;;;;;;;;;;5117587;28;20168;-78
2023/03/14 10:35:34;;;;;;;2.47;1.80;;;;;;;;;;5117407;28;20189;-78
2023/03/14 10:38:01;;;;;;;5.47;2.15;;;;;;;;;;5098865;28;20179;-78
2023/03/14 10:40:34;;;;;;;2.80;1.75;;;;;;;;;;5117007;28;20196;-78
2023/03/14 10:43:03;;;;;;;2.28;1.75;;;;;;;;;;5117068;28;20535;-78
2023/03/14 10:45:32;;;;;;;2.95;1.75;;;;;;;;;;5117260;28;20202;-78
2023/03/14 10:48:17;;;;;;;3.08;1.55;;;;;;;;;;5116489;28;20197;-78
2023/03/14 10:51:02;;;;;;;1.65;1.55;;;;;;;;;;5101439;28;20188;-78
2023/03/14 10:53:33;;;;;;;2.15;1.77;;;;;;;;;;5121469;28;20516;-78
2023/03/14 10:56:02;;;;;;;4.70;1.73;;;;;;;;;;5120720;28;20162;-78
2023/03/14 10:58:30;;;;;;;1.50;1.40;;;;;;;;;;5121120;28;20182;-78
2023/03/14 11:01:16;;;;;;;2.10;1.20;;;;;;;;;;5120694;28;20221;-78
2023/03/14 11:03:44;;;;;;;1.33;1.23;;;;;;;;;;5120568;28;20270;-79
2023/03/14 11:06:34;;;;;;;3.08;1.00;;;;;;;;;;5120534;28;20226;-77
2023/03/14 11:09:17;;;;;;;2.40;0.90;;;;;;;;;;5120247;28;20301;-77
2023/03/14 11:11:44;;;;;;;2.65;1.25;;;;;;;;;;5120596;28;20186;-79
2023/03/14 11:14:14;;;;;;;2.67;1.25;;;;;;;;;;5101666;28;20306;-78
2023/03/14 11:16:53;;;;;;;3.50;1.50;;;;;;;;;;5120337;28;20178;-78
2023/03/14 11:19:31;;;;;;;2.10;1.65;;;;;;;;;;5120019;28;20172;-78
2023/03/14 11:22:10;;;;;;;4.15;1.50;;;;;;;;;;5101849;28;20191;-78
2023/03/14 11:24:52;;;;;;;1.52;1.35;;;;;;;;;;5120118;28;20534;-78
2023/03/14 11:27:24;;;;;;;1.88;1.40;;;;;;;;;;5102290;28;20177;-77
2023/03/14 11:29:54;;;;;;;4.05;1.52;;;;;;;;;;5119674;28;20322;-77
2023/03/14 11:32:36;;;;;;;2.22;1.33;;;;;;;;;;5119785;28;20168;-80
2023/03/14 11:35:04;;;;;;;3.85;1.88;;;;;;;;;;5119081;28;20521;-77
2023/03/14 11:37:47;;;;;;;1.77;1.40;;;;;;;;;;5120082;28;20175;-77
2023/03/14 11:40:14;;;;;;;2.30;1.00;;;;;;;;;;5120708;28;20167;-77
2023/03/14 11:42:43;;;;;;;0.80;0.70;;;;;;;;;;5101909;28;20171;-77
2023/03/14 11:45:18;;;;;;;1.13;1.00;;;;;;;;;;5102306;28;20521;-78
2023/03/14 11:47:45;;;;;;;1.50;0.60;;;;;;;;;;5119524;28;20227;-78
2023/03/14 11:50:19;;;;;;;5.57;1.20;;;;;;;;;;5120145;28;20187;-78
2023/03/14 11:52:50;;;;;;;1.38;1.08;;;;;;;;;;5119095;28;20533;-78
2023/03/14 11:55:25;;;;;;;1.17;0.90;;;;;;;;;;5119614;28;20266;-77
2023/03/14 11:57:52;;;;;;;2.22;1.00;;;;;;;;;;5118776;28;20178;-78
2023/03/14 12:00:20;;;;;;;2.33;1.25;;;;;;;;;;5119665;28;20209;-77
2023/03/14 12:02:46;;;;;;;1.42;1.17;;;;;;;;;;5119668;28;20559;-78
2023/03/14 12:05:31;;;;;;;2.40;1.87;;;;;;;;;;5119266;28;20227;-77
2023/03/14 12:08:09;;;;;;;2.38;1.20;;;;;;;;;;5118956;28;20460;-78
2023/03/14 12:10:38;;;;;;;8.10;1.88;;;;;;;;;;5119999;28;20233;-78
2023/03/14 12:13:05;;;;;;;1.95;1.75;;;;;;;;;;5100854;28;20177;-78
2023/03/14 12:15:31;;;;;;;5.28;2.42;;;;;;;;;;5101867;28;20190;-78
2023/03/14 12:17:57;;;;;;;2.80;1.30;;;;;;;;;;5119053;28;20180;-77
2023/03/14 12:20:25;;;;;;;3.20;1.90;;;;;;;;;;5100635;28;20182;-78
2023/03/14 12:22:56;;;;;;;6.30;1.80;;;;;;;;;;5119003;28;20173;-78
2023/03/14 12:25:24;;;;;;;2.30;1.85;;;;;;;;;;5118917;28;20275;-78
2023/03/14 12:27:50;;;;;;;4.95;2.45;;;;;;;;;;5100838;28;20314;-78
2023/03/14 12:30:20;;;;;;;3.08;1.77;;;;;;;;;;5119680;28;20171;-78
2023/03/14 12:33:06;;;;;;;5.35;1.80;;;;;;;;;;5118980;28;20173;-83
2023/03/14 12:35:38;;;;;;;2.92;1.80;;;;;;;;;;5100837;28;20178;-78
2023/03/14 12:38:24;;;;;;;3.05;1.73;;;;;;;;;;5118460;28;20182;-77
2023/03/14 12:41:11;;;;;;;4.75;1.15;;;;;;;;;;5082705;28;20183;-78
2023/03/14 12:43:37;;;;;;;2.60;1.20;;;;;;;;;;5090139;28;20191;-78
2023/03/14 12:46:18;;;;;;;3.20;2.22;;;;;;;;;;5119281;28;20651;-78
2023/03/14 12:48:45;;;;;;;2.53;1.77;;;;;;;;;;5099998;28;20206;-78
2023/03/14 12:51:13;;;;;;;2.97;1.35;;;;;;;;;;5118521;28;20275;-78
2023/03/14 12:53:52;;;;;;;1.45;1.30;;;;;;;;;;5100685;28;20224;-78
2023/03/14 12:56:18;;;;;;;2.10;1.33;;;;;;;;;;5117957;28;20171;-78
2023/03/14 12:59:04;;;;;;;2.70;1.40;;;;;;;;;;5118379;28;20174;-78
2023/03/14 13:01:30;;;;;;;2.67;1.30;;;;;;;;;;5083638;28;20644;-78
2023/03/14 13:03:58;;;;;;;4.72;1.98;;;;;;;;;;5118384;28;20183;-78
2023/03/14 13:06:43;;;;;;;4.55;1.42;;;;;;;;;;5118671;28;20195;-78
2023/03/14 13:09:29;;;;;;;12.07;2.00;;;;;;;;;;5117198;28;20195;-78
2023/03/14 13:11:55;;;;;;;6.85;1.40;;;;;;;;;;5117458;28;20194;-78
2023/03/14 13:14:22;;;;;;;3.35;1.60;;;;;;;;;;5117076;28;20173;-78
2023/03/14 13:16:48;;;;;;;3.92;1.40;;;;;;;;;;5099597;28;20181;-78
2023/03/14 13:19:20;;;;;;;4.35;2.10;;;;;;;;;;5118223;28;20259;-77
2023/03/14 13:21:46;;;;;;;3.88;1.80;;;;;;;;;;5118509;28;20274;-77
2023/03/14 13:24:22;;;;;;;4.88;2.60;;;;;;;;;;5117972;28;20179;-77
2023/03/14 13:26:49;;;;;;;4.55;1.88;;;;;;;;;;5118044;28;20257;-77
2023/03/14 13:29:15;;;;;;;3.92;1.30;;;;;;;;;;5100517;28;20198;-76
2023/03/14 13:31:44;;;;;;;3.90;1.70;;;;;;;;;;5117641;28;20183;-77
2023/03/14 13:34:11;;;;;;;3.75;1.48;;;;;;;;;;5118084;28;20416;-76
2023/03/14 13:36:38;;;;;;;5.90;2.58;;;;;;;;;;5118109;28;20175;-77
2023/03/14 13:39:07;;;;;;;8.38;2.88;;;;;;;;;;5117375;28;20631;-77
2023/03/14 13:41:33;;;;;;;11.88;2.75;;;;;;;;;;5099615;28;20269;-77
2023/03/14 13:44:04;;;;;;;8.43;2.72;;;;;;;;;;5117667;28;20176;-76
2023/03/14 13:46:30;;;;;;;6.38;2.20;;;;;;;;;;5117850;28;20208;-77
2023/03/14 13:48:58;;;;;;;18.95;2.75;;;;;;;;;;5099463;28;20290;-76
2023/03/14 13:51:27;;;;;;;13.10;2.00;;;;;;;;;;5117533;28;20176;-76
2023/03/14 13:53:54;;;;;;;8.90;3.35;;;;;;;;;;5117749;28;20167;-77
2023/03/14 13:56:25;;;;;;;12.25;3.03;;;;;;;;;;5118195;28;20175;-77
2023/03/14 13:58:51;;;;;;;13.80;3.83;;;;;;;;;;5118009;28;20175;-77
2023/03/14 14:01:17;;;;;;;14.38;3.30;;;;;;;;;;5117925;28;20237;-77
2023/03/14 14:03:44;;;;;;;7.85;2.72;;;;;;;;;;5118234;28;20167;-77
2023/03/14 14:06:17;;;;;;;10.93;2.10;;;;;;;;;;5117577;28;20223;-77
2023/03/14 14:08:43;;;;;;;13.48;2.25;;;;;;;;;;5117594;28;20217;-77
2023/03/14 14:11:13;;;;;;;14.32;3.17;;;;;;;;;;5117364;28;20180;-76
2023/03/14 14:13:39;;;;;;;10.82;1.90;;;;;;;;;;5117454;28;20190;-76
2023/03/14 14:16:05;;;;;;;8.52;2.40;;;;;;;;;;5117777;28;20186;-77
2023/03/14 14:18:32;;;;;;;8.38;2.08;;;;;;;;;;5082565;28;20183;-77
2023/03/14 14:20:59;;;;;;;15.65;2.25;;;;;;;;;;5117445;28;20177;-77
2023/03/14 14:23:28;;;;;;;10.68;3.08;;;;;;;;;;5117431;28;20176;-76
2023/03/14 14:25:57;;;;;;;13.35;2.58;;;;;;;;;;5116402;28;20178;-77
2023/03/14 14:28:28;;;;;;;11.13;3.53;;;;;;;;;;5117306;28;20206;-77
2023/03/14 14:31:01;;;;;;;19.00;4.00;;;;;;;;;;5116523;28;20205;-82
2023/03/14 14:33:27;;;;;;;18.58;5.60;;;;;;;;;;5117297;28;20175;-77
2023/03/14 14:35:53;;;;;;;15.00;5.25;;;;;;;;;;5117420;28;20232;-77
2023/03/14 14:38:20;;;;;;;11.07;2.70;;;;;;;;;;5104643;28;20233;-76
2023/03/14 14:40:47;;;;;;;18.88;3.88;;;;;;;;;;5096594;28;20186;-77
2023/03/14 14:43:16;;;;;;;8.77;2.47;;;;;;;;;;5096910;28;20180;-77
2023/03/14 14:45:43;;;;;;;15.70;3.08;;;;;;;;;;5095692;28;20176;-77
2023/03/14 14:48:11;;;;;;;11.45;2.40;;;;;;;;;;5096033;28;20256;-77